createdAt,value
2023-04-14T00:01:18.370Z,29.67
2023-04-14T00:03:48.250Z,29.38
2023-04-14T00:06:19.037Z,29.42
2023-04-14T00:08:48.733Z,29.64
2023-04-14T00:11:18.454Z,29.54
2023-04-14T00:13:48.104Z,29.56
2023-04-14T00:16:17.756Z,29.91
2023-04-14T00:18:47.661Z,29.43
2023-04-14T00:21:17.853Z,29.39
2023-04-14T00:23:47.896Z,29.45
2023-04-14T00:26:17.650Z,29.37
2023-04-14T00:28:49.923Z,29.30
2023-04-14T00:31:20.110Z,29.21
2023-04-14T00:33:50.203Z,29.26
2023-04-14T00:36:20.688Z,29.21
2023-04-14T00:38:51.147Z,29.75
2023-04-14T00:41:21.160Z,29.54
2023-04-14T00:43:50.855Z,29.44
2023-04-14T00:46:20.889Z,29.45
2023-04-14T00:48:50.983Z,29.38
2023-04-14T00:51:21.036Z,29.86
2023-04-14T00:53:51.449Z,29.84
2023-04-14T00:56:21.094Z,29.83
2023-04-14T00:58:51.176Z,29.63
2023-04-14T01:01:20.901Z,29.67
2023-04-14T01:03:51.009Z,29.93
2023-04-14T01:06:21.754Z,29.79
2023-04-14T01:08:51.612Z,29.76
2023-04-14T01:11:34.975Z,29.93
2023-04-14T01:14:16.175Z,29.35
2023-04-14T01:16:47.159Z,29.60
2023-04-14T01:19:32.109Z,30.06
2023-04-14T01:22:07.691Z,29.98
2023-04-14T01:24:53.868Z,30.00
2023-04-14T01:27:29.169Z,29.95
2023-04-14T01:30:20.783Z,30.11
2023-04-14T01:32:53.386Z,29.68
2023-04-14T01:35:54.567Z,29.69
2023-04-14T01:38:37.568Z,29.82
2023-04-14T01:41:08.822Z,29.15
2023-04-14T01:43:42.342Z,28.96
2023-04-14T01:46:16.264Z,28.58
2023-04-14T01:48:50.455Z,28.39
2023-04-14T01:51:21.030Z,28.18
2023-04-14T01:53:51.816Z,28.21
2023-04-14T01:56:21.476Z,28.68
2023-04-14T01:58:54.287Z,28.87
2023-04-14T02:01:24.367Z,28.68
2023-04-14T02:03:54.944Z,28.48
2023-04-14T02:06:24.657Z,28.49
2023-04-14T02:08:54.299Z,28.32
2023-04-14T02:11:23.944Z,28.50
2023-04-14T02:13:53.624Z,28.76
2023-04-14T02:16:23.301Z,28.87
2023-04-14T02:18:52.973Z,28.71
2023-04-14T02:21:23.005Z,28.97
2023-04-14T02:23:53.163Z,29.06
2023-04-14T02:26:24.085Z,28.79
2023-04-14T02:29:12.407Z,29.23
2023-04-14T02:31:45.769Z,28.73
2023-04-14T02:34:15.925Z,29.06
2023-04-14T02:36:49.462Z,28.98
2023-04-14T02:39:42.927Z,29.30
2023-04-14T02:42:17.935Z,29.03
2023-04-14T02:44:52.152Z,29.27
2023-04-14T02:47:51.789Z,29.46
2023-04-14T02:50:22.123Z,29.28
2023-04-14T02:52:53.541Z,29.28
2023-04-14T02:55:23.249Z,29.28
2023-04-14T02:57:54.513Z,28.96
2023-04-14T03:00:28.007Z,29.13
2023-04-14T03:02:58.226Z,29.03
2023-04-14T03:05:27.939Z,29.17
2023-04-14T03:07:58.729Z,29.47
2023-04-14T03:10:29.229Z,29.36
2023-04-14T03:13:00.142Z,29.55
2023-04-14T03:15:30.531Z,29.36
2023-04-14T03:18:01.480Z,29.29
2023-04-14T03:20:32.954Z,29.31
2023-04-14T03:23:10.041Z,29.52
2023-04-14T03:25:39.760Z,29.55
2023-04-14T03:28:17.455Z,29.50
2023-04-14T03:30:50.515Z,29.60
2023-04-14T03:33:26.704Z,29.65
2023-04-14T03:35:57.294Z,29.51
2023-04-14T03:38:29.511Z,29.35
2023-04-14T03:41:03.088Z,29.47
2023-04-14T03:43:34.936Z,29.27
2023-04-14T03:46:06.856Z,29.50
2023-04-14T03:48:38.506Z,29.63
2023-04-14T03:51:10.779Z,29.18
2023-04-14T03:53:45.468Z,29.85
2023-04-14T03:56:16.898Z,29.67
2023-04-14T03:58:52.381Z,29.33
2023-04-14T04:01:21.349Z,30.35
2023-04-14T04:03:51.094Z,29.74
2023-04-14T04:06:20.774Z,29.51
2023-04-14T04:08:53.448Z,29.60
2023-04-14T04:11:24.987Z,29.79
2023-04-14T04:13:54.740Z,29.44
2023-04-14T04:16:24.534Z,29.51
2023-04-14T04:18:55.556Z,29.42
2023-04-14T04:21:25.181Z,29.61
2023-04-14T04:23:57.977Z,29.50
2023-04-14T04:26:30.721Z,29.25
2023-04-14T04:29:00.743Z,29.24
2023-04-14T04:31:33.041Z,29.35
2023-04-14T04:34:05.271Z,29.33
2023-04-14T04:36:34.999Z,29.77
2023-04-14T04:39:05.024Z,29.57
2023-04-14T04:41:34.943Z,29.35
2023-04-14T04:44:05.381Z,29.44
2023-04-14T04:46:58.319Z,29.63
2023-04-14T04:49:28.061Z,29.60
2023-04-14T04:52:01.392Z,29.61
2023-04-14T04:54:31.178Z,29.53
2023-04-14T04:57:01.481Z,29.49
2023-04-14T04:59:31.926Z,29.14
2023-04-14T05:02:01.742Z,29.30
2023-04-14T05:04:31.535Z,29.09
2023-04-14T05:07:01.246Z,29.31
2023-04-14T05:09:31.749Z,29.64
2023-04-14T05:12:02.859Z,29.57
2023-04-14T05:14:32.504Z,29.54
2023-04-14T05:17:02.918Z,29.54
2023-04-14T05:19:35.610Z,29.87
2023-04-14T05:22:05.649Z,29.62
2023-04-14T05:24:35.371Z,29.59
2023-04-14T05:27:14.408Z,29.50
2023-04-14T05:29:44.900Z,29.38
2023-04-14T05:32:16.125Z,29.31
2023-04-14T05:34:49.491Z,29.17
2023-04-14T05:37:20.871Z,29.24
2023-04-14T05:39:50.952Z,29.45
2023-04-14T05:42:21.014Z,29.14
2023-04-14T05:44:50.726Z,29.33
2023-04-14T05:47:20.901Z,29.42
2023-04-14T05:49:50.552Z,29.25
2023-04-14T05:52:20.316Z,29.48
2023-04-14T05:54:50.670Z,29.58
2023-04-14T05:57:21.072Z,29.40
2023-04-14T05:59:50.819Z,29.24
2023-04-14T06:02:21.276Z,29.51
2023-04-14T06:04:51.689Z,29.33
2023-04-14T06:07:22.322Z,29.15
2023-04-14T06:09:53.207Z,29.21
2023-04-14T06:12:26.740Z,29.23
2023-04-14T06:14:57.105Z,29.66
2023-04-14T06:17:28.015Z,29.23
2023-04-14T06:19:57.941Z,29.35
2023-04-14T06:22:31.272Z,29.11
2023-04-14T06:25:01.704Z,29.23
2023-04-14T06:27:31.768Z,29.19
2023-04-14T06:30:03.911Z,29.45
2023-04-14T06:32:34.526Z,29.27
2023-04-14T06:35:04.394Z,28.75
2023-04-14T06:37:34.288Z,29.12
2023-04-14T06:40:04.407Z,29.09
2023-04-14T06:42:34.073Z,28.88
2023-04-14T06:45:03.782Z,28.80
2023-04-14T06:47:33.517Z,28.75
2023-04-14T06:50:05.821Z,28.75
2023-04-14T06:52:39.385Z,28.89
2023-04-14T06:55:10.160Z,28.70
2023-04-14T06:57:39.863Z,28.96
2023-04-14T07:00:12.209Z,28.92
2023-04-14T07:02:43.135Z,29.02
2023-04-14T07:05:15.246Z,28.90
2023-04-14T07:07:45.957Z,28.79
2023-04-14T07:10:15.766Z,28.72
2023-04-14T07:12:45.489Z,28.52
2023-04-14T07:15:15.981Z,28.57
2023-04-14T07:17:45.702Z,28.86
2023-04-14T07:20:17.333Z,28.69
2023-04-14T07:22:47.217Z,28.99
2023-04-14T07:25:17.019Z,28.87
2023-04-14T07:27:56.480Z,28.72
2023-04-14T07:30:33.321Z,28.46
2023-04-14T07:33:06.571Z,28.89
2023-04-14T07:35:36.939Z,28.57
2023-04-14T07:38:06.635Z,28.85
2023-04-14T07:40:40.136Z,28.48
2023-04-14T07:43:13.148Z,28.61
2023-04-14T07:45:42.888Z,28.75
2023-04-14T07:48:17.256Z,28.73
2023-04-14T07:50:47.792Z,28.42
2023-04-14T07:53:17.846Z,28.44
2023-04-14T07:55:47.527Z,28.35
2023-04-14T07:58:21.627Z,28.36
2023-04-14T08:00:53.516Z,28.50
2023-04-14T08:03:24.519Z,28.19
2023-04-14T08:05:55.113Z,28.43
2023-04-14T08:08:25.144Z,28.53
2023-04-14T08:10:56.506Z,28.67
2023-04-14T08:13:29.047Z,28.55
2023-04-14T08:15:59.395Z,28.66
2023-04-14T08:18:33.391Z,28.73
2023-04-14T08:21:03.080Z,28.83
2023-04-14T08:23:32.894Z,28.56
2023-04-14T08:26:02.626Z,28.77
2023-04-14T08:28:35.338Z,28.38
2023-04-14T08:31:05.015Z,28.51
2023-04-14T08:33:35.833Z,28.66
2023-04-14T08:36:08.298Z,28.75
2023-04-14T08:38:38.180Z,28.41
2023-04-14T08:41:12.677Z,28.70
2023-04-14T08:43:42.567Z,28.77
2023-04-14T08:46:16.119Z,28.98
2023-04-14T08:48:46.507Z,29.07
2023-04-14T08:51:25.097Z,28.70
2023-04-14T08:53:54.781Z,28.78
2023-04-14T08:56:25.273Z,28.96
2023-04-14T08:58:55.664Z,28.73
2023-04-14T09:01:25.815Z,28.84
2023-04-14T09:03:57.877Z,28.69
2023-04-14T09:06:29.972Z,28.96
2023-04-14T09:09:06.196Z,28.99
2023-04-14T09:11:36.652Z,28.95
2023-04-14T09:14:06.680Z,28.81
2023-04-14T09:16:36.370Z,29.05
2023-04-14T09:19:07.447Z,29.17
2023-04-14T09:21:53.979Z,29.13
2023-04-14T09:24:32.650Z,29.29
2023-04-14T09:27:09.120Z,29.29
2023-04-14T09:29:41.446Z,29.45
2023-04-14T09:32:17.657Z,29.26
2023-04-14T09:34:57.764Z,29.44
2023-04-14T09:37:28.506Z,29.13
2023-04-14T09:40:05.503Z,29.10
2023-04-14T09:42:42.871Z,29.39
2023-04-14T09:45:16.748Z,29.22
2023-04-14T09:47:46.873Z,29.32
2023-04-14T09:50:17.413Z,29.20
2023-04-14T09:52:48.416Z,28.93
2023-04-14T09:55:18.712Z,29.30
2023-04-14T09:57:54.129Z,29.15
2023-04-14T10:00:26.095Z,29.80
2023-04-14T10:02:58.475Z,29.29
2023-04-14T10:05:33.765Z,29.16
2023-04-14T10:08:05.482Z,29.05
2023-04-14T10:10:35.647Z,28.92
2023-04-14T10:13:05.313Z,29.28
2023-04-14T10:15:35.427Z,29.30
2023-04-14T10:18:05.518Z,29.08
2023-04-14T10:20:35.312Z,29.21
2023-04-14T10:23:08.320Z,29.18
2023-04-14T10:25:40.863Z,29.18
2023-04-14T10:28:11.194Z,29.38
2023-04-14T10:30:44.738Z,29.12
2023-04-14T10:33:14.434Z,29.14
2023-04-14T10:35:48.327Z,29.50
2023-04-14T10:38:23.656Z,29.28
2023-04-14T10:40:59.722Z,29.59
2023-04-14T10:43:32.444Z,29.45
2023-04-14T10:46:03.466Z,29.44
2023-04-14T10:48:40.703Z,29.31
2023-04-14T10:51:11.380Z,29.23
2023-04-14T10:53:43.139Z,29.09
2023-04-14T10:56:12.883Z,29.30
2023-04-14T10:58:43.356Z,29.28
2023-04-14T11:01:27.798Z,29.60
2023-04-14T11:04:00.480Z,29.62
2023-04-14T11:07:14.027Z,29.55
2023-04-14T11:09:43.880Z,29.63
2023-04-14T11:12:33.036Z,29.79
2023-04-14T11:15:06.502Z,29.52
2023-04-14T11:17:42.433Z,29.83
2023-04-14T11:20:19.861Z,29.72
2023-04-14T11:22:51.706Z,29.55
2023-04-14T11:25:24.788Z,29.79
2023-04-14T11:27:55.555Z,29.69
2023-04-14T11:30:25.237Z,29.82
2023-04-14T11:32:58.229Z,29.89
2023-04-14T11:35:29.073Z,29.89
2023-04-14T11:37:59.815Z,29.64
2023-04-14T11:40:30.046Z,29.73
2023-04-14T11:43:03.732Z,30.14
2023-04-14T11:45:34.711Z,29.73
2023-04-14T11:48:08.377Z,30.09
2023-04-14T11:50:40.947Z,29.89
2023-04-14T11:53:23.345Z,30.32
2023-04-14T11:55:57.021Z,30.15
2023-04-14T11:58:30.364Z,30.27
2023-04-14T12:01:00.408Z,30.09
2023-04-14T12:03:31.581Z,30.13
2023-04-14T12:06:03.790Z,30.12
2023-04-14T12:08:35.329Z,30.24
2023-04-14T12:11:18.082Z,30.52
2023-04-14T12:13:49.047Z,30.25
2023-04-14T12:16:19.196Z,30.31
2023-04-14T12:18:49.925Z,30.37
2023-04-14T12:21:42.876Z,30.91
2023-04-14T12:24:13.432Z,30.31
2023-04-14T12:26:43.646Z,30.67
2023-04-14T12:29:16.531Z,30.41
2023-04-14T12:31:47.159Z,30.66
2023-04-14T12:34:18.298Z,30.71
2023-04-14T12:36:54.330Z,30.96
2023-04-14T12:39:24.393Z,30.95
2023-04-14T12:41:54.099Z,30.93
2023-04-14T12:44:25.932Z,30.55
2023-04-14T12:46:57.482Z,30.57
2023-04-14T12:49:40.386Z,31.04
2023-04-14T12:52:10.758Z,30.68
2023-04-14T12:54:52.128Z,31.05
2023-04-14T12:57:24.519Z,30.87
2023-04-14T12:59:54.640Z,30.88
2023-04-14T13:02:25.215Z,30.65
2023-04-14T13:04:54.971Z,31.05
2023-04-14T13:07:28.310Z,31.06
2023-04-14T13:09:59.620Z,31.08
2023-04-14T13:12:29.694Z,30.88
2023-04-14T13:14:59.377Z,30.96
2023-04-14T13:17:29.981Z,31.24
2023-04-14T13:20:00.358Z,31.22
2023-04-14T13:22:30.460Z,31.12
2023-04-14T13:25:02.380Z,31.36
2023-04-14T13:27:32.989Z,31.46
2023-04-14T13:30:02.676Z,31.29
2023-04-14T13:32:32.512Z,31.47
2023-04-14T13:35:03.440Z,31.21
2023-04-14T13:37:33.125Z,31.17
2023-04-14T13:40:03.453Z,31.55
2023-04-14T13:42:33.367Z,31.30
2023-04-14T13:45:04.197Z,31.64
2023-04-14T13:47:36.514Z,31.40
2023-04-14T13:50:07.071Z,31.23
2023-04-14T13:52:38.036Z,31.40
2023-04-14T13:55:08.061Z,31.51
2023-04-14T13:57:38.472Z,31.72
2023-04-14T14:00:09.832Z,31.64
2023-04-14T14:02:42.882Z,31.76
2023-04-14T14:05:13.359Z,31.55
2023-04-14T14:07:43.761Z,31.76
2023-04-14T14:10:14.305Z,31.77
2023-04-14T14:12:44.008Z,31.82
2023-04-14T14:15:14.444Z,31.71
2023-04-14T14:17:44.059Z,31.99
2023-04-14T14:20:14.587Z,31.53
2023-04-14T14:22:44.380Z,31.98
2023-04-14T14:25:20.553Z,31.82
2023-04-14T14:27:54.283Z,31.84
2023-04-14T14:30:23.979Z,31.70
2023-04-14T14:32:54.531Z,31.77
2023-04-14T14:35:24.957Z,31.74
2023-04-14T14:37:54.640Z,31.89
2023-04-14T14:40:24.427Z,31.97
2023-04-14T14:42:54.844Z,31.79
2023-04-14T14:45:27.547Z,31.83
2023-04-14T14:48:02.120Z,32.01
2023-04-14T14:50:32.377Z,31.86
2023-04-14T14:53:05.716Z,32.25
2023-04-14T14:55:35.939Z,32.09
2023-04-14T14:58:08.784Z,32.13
2023-04-14T15:00:39.519Z,32.13
2023-04-14T15:03:09.577Z,32.02
2023-04-14T15:05:40.143Z,31.97
2023-04-14T15:08:10.030Z,31.98
2023-04-14T15:10:39.741Z,32.21
2023-04-14T15:13:09.831Z,32.20
2023-04-14T15:15:42.990Z,32.16
2023-04-14T15:18:12.907Z,32.10
2023-04-14T15:20:43.847Z,32.10
2023-04-14T15:23:14.352Z,32.40
2023-04-14T15:25:44.053Z,32.32
2023-04-14T15:28:14.517Z,32.35
2023-04-14T15:30:44.865Z,32.16
2023-04-14T15:33:15.172Z,32.10
2023-04-14T15:35:45.549Z,32.35
2023-04-14T15:38:15.228Z,32.20
2023-04-14T15:40:44.944Z,32.08
2023-04-14T15:43:14.653Z,32.11
2023-04-14T15:45:45.322Z,32.24
2023-04-14T15:48:15.066Z,32.20
2023-04-14T15:50:45.799Z,32.50
2023-04-14T15:53:15.838Z,32.41
2023-04-14T15:55:46.036Z,32.44
2023-04-14T15:58:16.690Z,32.16
2023-04-14T16:00:46.873Z,32.32
2023-04-14T16:03:17.731Z,32.51
2023-04-14T16:05:48.399Z,32.17
2023-04-14T16:08:21.672Z,32.70
2023-04-14T16:10:51.983Z,32.34
2023-04-14T16:13:22.317Z,32.33
2023-04-14T16:15:51.982Z,32.50
2023-04-14T16:18:21.640Z,32.33
2023-04-14T16:20:53.508Z,32.49
2023-04-14T16:23:23.525Z,32.58
2023-04-14T16:25:53.208Z,32.39
2023-04-14T16:28:24.550Z,32.46
2023-04-14T16:30:55.252Z,32.59
2023-04-14T16:33:26.146Z,32.55
2023-04-14T16:36:00.733Z,32.59
2023-04-14T16:38:31.060Z,32.54
2023-04-14T16:41:00.880Z,32.50
2023-04-14T16:43:31.350Z,32.73
2023-04-14T16:46:05.660Z,32.93
2023-04-14T16:48:39.226Z,32.60
2023-04-14T16:51:12.777Z,32.66
2023-04-14T16:53:43.031Z,32.74
2023-04-14T16:56:16.231Z,32.60
2023-04-14T16:58:46.843Z,32.54
2023-04-14T17:01:17.021Z,32.48
2023-04-14T17:03:46.986Z,32.77
2023-04-14T17:06:17.953Z,32.65
2023-04-14T17:08:49.107Z,32.59
2023-04-14T17:11:19.393Z,32.82
2023-04-14T17:13:53.903Z,32.59
2023-04-14T17:16:24.268Z,32.80
2023-04-14T17:18:59.772Z,32.88
2023-04-14T17:21:28.738Z,33.50
2023-04-14T17:23:58.406Z,32.73
2023-04-14T17:26:28.602Z,32.59
2023-04-14T17:28:58.234Z,32.58
2023-04-14T17:31:28.769Z,32.82
2023-04-14T17:33:58.554Z,32.88
2023-04-14T17:36:28.766Z,32.97
2023-04-14T17:38:59.121Z,32.67
2023-04-14T17:41:30.149Z,33.01
2023-04-14T17:44:03.469Z,32.71
2023-04-14T17:46:36.832Z,32.90
2023-04-14T17:49:06.526Z,32.60
2023-04-14T17:51:36.860Z,32.84
2023-04-14T17:54:09.228Z,32.67
2023-04-14T17:56:38.984Z,32.73
2023-04-14T17:59:09.073Z,32.90
2023-04-14T18:01:39.847Z,32.79
2023-04-14T18:04:10.422Z,32.88
2023-04-14T18:06:43.200Z,32.98
2023-04-14T18:09:14.542Z,32.83
2023-04-14T18:11:46.005Z,32.54
2023-04-14T18:14:17.952Z,32.48
2023-04-14T18:16:48.648Z,32.67
2023-04-14T18:19:19.435Z,32.54
2023-04-14T18:21:49.847Z,32.64
2023-04-14T18:26:57.166Z,32.82
2023-04-14T18:29:27.324Z,32.59
2023-04-14T18:31:58.109Z,32.83
2023-04-14T18:34:27.842Z,32.64
2023-04-14T18:36:57.956Z,32.87
2023-04-14T18:39:27.970Z,32.77
2023-04-14T18:41:58.276Z,32.77
2023-04-14T18:44:28.555Z,32.72
2023-04-14T18:46:59.268Z,32.84
2023-04-14T18:49:29.846Z,32.66
2023-04-14T18:52:00.301Z,32.70
2023-04-14T18:54:30.105Z,32.52
2023-04-14T18:56:59.811Z,32.54
2023-04-14T18:59:33.312Z,32.82
2023-04-14T19:02:06.160Z,33.03
2023-04-14T19:04:36.042Z,32.62
2023-04-14T19:07:05.680Z,32.74
2023-04-14T19:09:37.627Z,32.82
2023-04-14T19:12:15.554Z,32.82
2023-04-14T19:14:55.636Z,32.75
2023-04-14T19:17:25.495Z,32.60
2023-04-14T19:19:56.505Z,32.86
2023-04-14T19:22:27.229Z,32.86
2023-04-14T19:24:57.427Z,32.97
2023-04-14T19:27:27.080Z,32.93
2023-04-14T19:29:58.572Z,33.02
2023-04-14T19:32:28.213Z,32.59
2023-04-14T19:34:57.989Z,33.04
2023-04-14T19:37:28.146Z,32.54
2023-04-14T19:39:58.791Z,32.97
2023-04-14T19:42:28.827Z,33.00
2023-04-14T19:45:02.409Z,32.97
2023-04-14T19:47:32.131Z,33.15
2023-04-14T19:50:02.618Z,32.92
2023-04-14T19:52:32.312Z,33.09
2023-04-14T19:55:01.976Z,32.88
2023-04-14T19:57:31.675Z,32.70
2023-04-14T20:00:01.385Z,32.70
2023-04-14T20:02:31.446Z,32.88
2023-04-14T20:05:01.334Z,32.66
2023-04-14T20:07:31.896Z,33.08
2023-04-14T20:10:02.952Z,32.80
2023-04-14T20:12:33.367Z,32.84
2023-04-14T20:15:03.715Z,33.15
2023-04-14T20:17:33.460Z,33.04
2023-04-14T20:20:08.561Z,32.90
2023-04-14T20:22:41.463Z,33.21
2023-04-14T20:25:11.990Z,33.19
2023-04-14T20:27:42.518Z,33.08
2023-04-14T20:30:14.449Z,33.09
2023-04-14T20:32:44.271Z,33.01
2023-04-14T20:35:13.988Z,33.09
2023-04-14T20:37:43.818Z,33.16
2023-04-14T20:40:13.702Z,32.94
2023-04-14T20:42:44.404Z,33.22
2023-04-14T20:45:15.071Z,33.26
2023-04-14T20:47:44.699Z,33.37
2023-04-14T20:50:17.048Z,32.98
2023-04-14T20:52:46.956Z,33.31
2023-04-14T20:55:17.292Z,33.07
2023-04-14T20:57:50.822Z,33.48
2023-04-14T21:00:23.193Z,33.89
2023-04-14T21:02:56.653Z,33.99
2023-04-14T21:05:27.816Z,34.00
2023-04-14T21:07:58.662Z,34.10
2023-04-14T21:10:29.524Z,34.53
2023-04-14T21:15:41.418Z,34.49
2023-04-14T21:15:56.819Z,34.61
2023-04-14T21:18:27.610Z,34.78
2023-04-14T21:20:58.587Z,34.78
2023-04-14T21:23:31.184Z,35.08
2023-04-14T21:26:05.865Z,34.82
2023-04-14T21:28:36.984Z,34.90
2023-04-14T21:31:07.534Z,34.79
2023-04-14T21:33:38.099Z,34.91
2023-04-14T21:36:12.285Z,34.94
2023-04-14T21:38:42.856Z,35.08
2023-04-14T21:41:12.607Z,35.10
2023-04-14T21:43:42.677Z,35.08
2023-04-14T21:46:12.421Z,35.30
2023-04-14T21:48:44.548Z,35.31
2023-04-14T21:51:14.299Z,35.02
2023-04-14T21:53:45.600Z,35.24
2023-04-14T21:56:16.457Z,35.43
2023-04-14T21:58:47.417Z,35.37
2023-04-14T22:01:19.807Z,35.57
2023-04-14T22:03:49.628Z,35.29
2023-04-14T22:06:20.791Z,35.47
2023-04-14T22:08:50.443Z,35.29
2023-04-14T22:11:21.525Z,35.45
2023-04-14T22:13:51.664Z,35.22
2023-04-14T22:16:21.571Z,35.18
2023-04-14T22:18:51.271Z,35.43
2023-04-14T22:21:21.475Z,35.28
2023-04-14T22:23:51.140Z,35.35
2023-04-14T22:26:21.189Z,35.36
2023-04-14T22:28:50.874Z,35.12
2023-04-14T22:31:20.613Z,35.51
2023-04-14T22:33:50.276Z,35.43
2023-04-14T22:36:20.008Z,35.23
2023-04-14T22:38:50.730Z,35.33
2023-04-14T22:41:20.436Z,35.35
2023-04-14T22:43:50.139Z,35.46
2023-04-14T22:46:24.761Z,35.60
2023-04-14T22:48:54.440Z,35.22
2023-04-14T22:51:24.774Z,35.29
2023-04-14T22:53:59.869Z,35.49
2023-04-14T22:56:30.330Z,35.34
2023-04-14T22:59:00.468Z,35.42
2023-04-14T23:01:34.602Z,35.36
2023-04-14T23:04:04.521Z,35.27
2023-04-14T23:06:34.942Z,35.39
2023-04-14T23:09:05.466Z,35.31
2023-04-14T23:11:35.649Z,35.41
2023-04-14T23:14:08.135Z,35.21
2023-04-14T23:16:38.870Z,35.33
2023-04-14T23:19:09.186Z,35.21
2023-04-14T23:21:40.436Z,35.22
2023-04-14T23:24:10.259Z,35.37
2023-04-14T23:26:40.810Z,35.29
2023-04-14T23:29:10.472Z,35.29
2023-04-14T23:31:41.679Z,35.14
2023-04-14T23:34:14.348Z,35.30
2023-04-14T23:36:45.146Z,35.16
2023-04-14T23:39:14.796Z,35.20
2023-04-14T23:41:45.188Z,35.36
2023-04-14T23:44:15.600Z,35.36
2023-04-14T23:46:45.388Z,35.40
2023-04-14T23:49:23.742Z,35.24
2023-04-14T23:51:54.587Z,35.19
2023-04-14T23:54:24.216Z,35.34
2023-04-14T23:56:54.320Z,35.09
2023-04-14T23:59:24.486Z,35.17
